Time;durP1;ratioP1;P1;durP2;ratioP2;P2;SDS_P1;SDS_P2;PMS_P1;PMS_P2;Temp;Humidity;BMP_temperature;BMP_pressure;BME280_temperature;BME280_humidity;BME280_pressure;Samples;Min_cycle;Max_cycle;Signal;HPM_P1;HPM_P2
2022/11/12 00:01:36;;;;;;;7.13;5.40;;;10.00;99.90;;;;;;5111428;28;20782;-69
2022/11/12 00:04:03;;;;;;;12.13;4.70;;;10.00;99.90;;;;;;5111702;28;20457;-69
2022/11/12 00:06:30;;;;;;;7.10;4.70;;;10.00;99.90;;;;;;5112315;28;20481;-70
2022/11/12 00:08:59;;;;;;;6.80;4.60;;;10.00;99.90;;;;;;5112246;28;20469;-69
2022/11/12 00:11:25;;;;;;;7.07;4.80;;;10.00;99.90;;;;;;5111079;28;20890;-69
2022/11/12 00:13:52;;;;;;;5.83;5.07;;;9.90;99.90;;;;;;5112202;28;20480;-69
2022/11/12 00:16:19;;;;;;;7.17;4.60;;;9.90;99.90;;;;;;5113190;28;20449;-69
2022/11/12 00:18:47;;;;;;;8.40;4.47;;;9.90;99.90;;;;;;5112577;28;20449;-69
2022/11/12 00:21:14;;;;;;;5.63;4.37;;;9.90;99.90;;;;;;5112586;28;20465;-70
2022/11/12 00:23:41;;;;;;;5.70;4.30;;;9.90;99.90;;;;;;5112954;28;20453;-68
2022/11/12 00:26:09;;;;;;;10.33;5.73;;;9.90;99.90;;;;;;5113668;28;20500;-69
2022/11/12 00:28:36;;;;;;;6.27;4.90;;;9.90;99.90;;;;;;5113413;28;20514;-69
2022/11/12 00:31:08;;;;;;;9.90;4.73;;;9.90;99.90;;;;;;5111611;28;20445;-70
2022/11/12 00:33:38;;;;;;;5.33;4.30;;;9.90;99.90;;;;;;5112522;28;20433;-69
2022/11/12 00:36:06;;;;;;;5.33;4.43;;;9.90;99.90;;;;;;5112732;28;20449;-70
2022/11/12 00:38:33;;;;;;;4.77;4.07;;;9.80;99.90;;;;;;5112612;28;20460;-69
2022/11/12 00:41:00;;;;;;;4.33;3.87;;;9.80;99.90;;;;;;5112176;28;20453;-69
2022/11/12 00:43:28;;;;;;;5.60;4.27;;;9.80;99.90;;;;;;5113587;28;20449;-70
2022/11/12 00:45:55;;;;;;;6.60;4.30;;;9.80;99.90;;;;;;5111388;28;20473;-69
2022/11/12 00:48:22;;;;;;;6.87;3.40;;;9.80;99.90;;;;;;5111085;28;20493;-68
2022/11/12 00:50:49;;;;;;;6.07;3.80;;;9.80;99.90;;;;;;5110692;28;20464;-69
2022/11/12 00:53:16;;;;;;;4.80;3.87;;;9.80;99.90;;;;;;5111297;28;20453;-69
2022/11/12 00:55:43;;;;;;;5.77;3.50;;;9.90;99.90;;;;;;5112078;28;20502;-69
2022/11/12 00:58:10;;;;;;;4.37;3.80;;;9.90;99.90;;;;;;5112744;28;20552;-69
2022/11/12 01:00:38;;;;;;;5.00;3.80;;;9.90;99.90;;;;;;5112540;28;20492;-69
2022/11/12 01:03:05;;;;;;;8.03;4.00;;;9.90;99.90;;;;;;5114711;28;20442;-69
2022/11/12 01:05:33;;;;;;;8.80;3.57;;;10.00;99.90;;;;;;5115261;28;20473;-68
2022/11/12 01:08:00;;;;;;;5.20;3.30;;;10.00;99.90;;;;;;5116266;28;20457;-69
2022/11/12 01:10:27;;;;;;;5.60;3.70;;;10.00;99.90;;;;;;5118437;28;20453;-68
2022/11/12 01:12:55;;;;;;;6.53;4.60;;;10.00;99.90;;;;;;5117360;28;20479;-68
2022/11/12 01:15:21;;;;;;;4.97;3.80;;;10.00;99.90;;;;;;5116988;28;20445;-68
2022/11/12 01:17:50;;;;;;;5.60;4.00;;;10.00;99.90;;;;;;5117140;28;20464;-69
2022/11/12 01:20:17;;;;;;;4.73;3.80;;;10.00;99.90;;;;;;5117182;28;20449;-69
2022/11/12 01:22:44;;;;;;;4.53;3.80;;;10.00;99.90;;;;;;5117809;28;20765;-69
2022/11/12 01:25:11;;;;;;;6.30;3.90;;;10.00;99.90;;;;;;5117018;28;20475;-70
2022/11/12 01:27:38;;;;;;;10.00;4.00;;;10.00;99.90;;;;;;5116616;28;20453;-69
2022/11/12 01:30:06;;;;;;;4.83;3.70;;;10.00;99.90;;;;;;5117698;28;20449;-69
2022/11/12 01:32:35;;;;;;;5.33;3.83;;;10.00;99.90;;;;;;5117021;28;20479;-69
2022/11/12 01:35:05;;;;;;;5.00;3.70;;;10.00;99.90;;;;;;5117382;28;20449;-68
2022/11/12 01:37:32;;;;;;;4.30;3.70;;;10.00;99.90;;;;;;5116658;28;20449;-68
2022/11/12 01:39:59;;;;;;;5.80;3.57;;;10.00;99.90;;;;;;5116651;28;20931;-69
2022/11/12 01:42:29;;;;;;;5.70;4.00;;;10.00;99.90;;;;;;5117483;28;20449;-68
2022/11/12 01:44:56;;;;;;;5.07;4.00;;;10.00;99.90;;;;;;5115898;28;20442;-69
2022/11/12 01:47:26;;;;;;;5.07;3.60;;;10.00;99.90;;;;;;5114760;28;20477;-69
2022/11/12 01:49:58;;;;;;;7.60;4.13;;;10.00;99.90;;;;;;5115770;28;20467;-69
2022/11/12 01:52:31;;;;;;;5.40;4.50;;;10.00;99.90;;;;;;5115550;28;20453;-69
2022/11/12 01:55:03;;;;;;;5.90;4.20;;;9.90;99.90;;;;;;5116648;28;20511;-68
2022/11/12 01:57:35;;;;;;;4.47;3.40;;;9.90;99.90;;;;;;5116515;28;20460;-69
2022/11/12 02:00:06;;;;;;;4.27;3.50;;;9.80;99.90;;;;;;5115799;28;20463;-70
2022/11/12 02:02:35;;;;;;;4.17;3.77;;;9.80;99.90;;;;;;5115738;28;20457;-69
2022/11/12 02:05:04;;;;;;;6.10;4.20;;;9.70;99.90;;;;;;5115659;28;20454;-69
2022/11/12 02:07:34;;;;;;;7.23;4.47;;;9.60;99.90;;;;;;5115507;28;20477;-69
2022/11/12 02:10:02;;;;;;;5.73;4.30;;;9.60;99.90;;;;;;5115242;28;20498;-69
2022/11/12 02:15:14;;;;;;;4.90;4.00;;;9.50;99.90;;;;;;5112051;28;20440;-69
2022/11/12 02:17:41;;;;;;;6.97;4.07;;;9.40;99.90;;;;;;5114042;28;20465;-68
2022/11/12 02:20:10;;;;;;;5.97;4.17;;;9.40;99.90;;;;;;5113333;28;20453;-68
2022/11/12 02:22:38;;;;;;;4.20;3.60;;;9.30;99.90;;;;;;5114311;28;20454;-68
2022/11/12 02:25:06;;;;;;;6.50;4.07;;;9.30;99.90;;;;;;5109933;28;20473;-68
2022/11/12 02:27:34;;;;;;;6.53;4.00;;;9.30;99.90;;;;;;5111421;28;20473;-69
2022/11/12 02:30:01;;;;;;;7.20;4.10;;;9.30;99.90;;;;;;5112972;28;20453;-68
2022/11/12 02:32:28;;;;;;;6.30;3.70;;;9.20;99.90;;;;;;5113069;28;20483;-69
2022/11/12 02:34:55;;;;;;;4.67;3.77;;;9.20;99.90;;;;;;5113835;28;20454;-69
2022/11/12 02:37:22;;;;;;;5.70;3.80;;;9.20;99.90;;;;;;5114138;28;20442;-68
2022/11/12 02:39:50;;;;;;;5.90;3.80;;;9.20;99.90;;;;;;5113896;28;20457;-69
2022/11/12 02:42:17;;;;;;;4.90;3.70;;;9.10;99.90;;;;;;5113226;28;20449;-69
2022/11/12 02:44:44;;;;;;;6.73;3.80;;;9.10;99.90;;;;;;5114887;28;20830;-69
2022/11/12 02:47:11;;;;;;;6.10;3.73;;;9.10;99.90;;;;;;5114405;28;20473;-69
2022/11/12 02:49:38;;;;;;;4.70;3.70;;;9.00;99.90;;;;;;5114131;28;20460;-69
2022/11/12 02:52:05;;;;;;;4.90;4.30;;;9.00;99.90;;;;;;5114842;28;20449;-69
2022/11/12 02:54:32;;;;;;;4.00;3.07;;;9.00;99.90;;;;;;5114255;28;20457;-69
2022/11/12 02:57:00;;;;;;;7.10;4.07;;;8.90;99.90;;;;;;5114033;28;20522;-69
2022/11/12 02:59:27;;;;;;;7.20;3.93;;;8.90;99.90;;;;;;5114661;28;20453;-68
2022/11/12 03:01:54;;;;;;;7.27;4.00;;;8.90;99.90;;;;;;5112174;28;20453;-69
2022/11/12 03:04:21;;;;;;;6.93;4.10;;;8.90;99.90;;;;;;5112413;28;20536;-69
2022/11/12 03:06:48;;;;;;;4.73;3.80;;;8.90;99.90;;;;;;5112639;28;20477;-69
2022/11/12 03:09:15;;;;;;;5.13;4.10;;;8.90;99.90;;;;;;5111935;28;20449;-68
2022/11/12 03:11:42;;;;;;;4.10;3.70;;;8.80;99.90;;;;;;5112059;28;20510;-69
2022/11/12 03:14:10;;;;;;;6.43;4.23;;;8.80;99.90;;;;;;5111781;28;20445;-69
2022/11/12 03:16:37;;;;;;;6.77;4.20;;;8.80;99.90;;;;;;5112572;28;20464;-69
2022/11/12 03:19:04;;;;;;;7.90;4.33;;;8.70;99.90;;;;;;5111088;28;20464;-69
2022/11/12 03:21:31;;;;;;;5.13;3.87;;;8.70;99.90;;;;;;5111280;28;20894;-69
2022/11/12 03:23:58;;;;;;;6.70;4.40;;;8.70;99.90;;;;;;5112651;28;20480;-69
2022/11/12 03:26:25;;;;;;;4.17;3.50;;;8.70;99.90;;;;;;5112208;28;20485;-69
2022/11/12 03:28:52;;;;;;;6.77;4.80;;;8.70;99.90;;;;;;5113771;28;20460;-69
2022/11/12 03:31:20;;;;;;;6.80;4.30;;;8.70;99.90;;;;;;5113294;28;20495;-69
2022/11/12 03:33:47;;;;;;;5.07;3.87;;;8.70;99.90;;;;;;5114134;28;20445;-69
2022/11/12 03:36:14;;;;;;;5.13;4.00;;;8.70;99.90;;;;;;5113752;28;20480;-69
2022/11/12 03:38:41;;;;;;;5.97;4.33;;;8.60;99.90;;;;;;5112744;28;20461;-69
2022/11/12 03:41:08;;;;;;;6.13;3.80;;;8.70;99.90;;;;;;5112687;28;20450;-70
2022/11/12 03:43:35;;;;;;;7.80;4.20;;;8.70;99.90;;;;;;5112386;28;20452;-68
2022/11/12 03:46:02;;;;;;;5.53;3.90;;;8.60;99.90;;;;;;5112896;28;20484;-68
2022/11/12 03:48:30;;;;;;;4.40;3.63;;;8.70;99.90;;;;;;5112895;28;20449;-68
2022/11/12 03:50:58;;;;;;;5.00;4.27;;;8.70;99.90;;;;;;5112189;28;20453;-69
2022/11/12 03:53:26;;;;;;;5.60;4.47;;;8.70;99.90;;;;;;5113540;28;20475;-69
2022/11/12 03:55:53;;;;;;;7.93;5.33;;;8.70;99.90;;;;;;5113509;28;20449;-68
2022/11/12 03:58:20;;;;;;;6.73;3.77;;;8.70;99.90;;;;;;5113533;28;20449;-69
2022/11/12 04:00:47;;;;;;;6.13;4.30;;;8.70;99.90;;;;;;5113206;28;20449;-69
2022/11/12 04:03:14;;;;;;;4.83;4.00;;;8.70;99.90;;;;;;5113595;28;20450;-69
2022/11/12 04:08:35;;;;;;;4.63;3.57;;;8.70;99.90;;;;;;5112078;28;20448;-69
2022/11/12 04:11:04;;;;;;;6.00;4.10;;;8.70;99.90;;;;;;5112743;28;20463;-69
2022/11/12 04:13:31;;;;;;;5.80;4.30;;;8.70;99.90;;;;;;5111152;28;20479;-69
2022/11/12 04:21:53;;;;;;;6.03;4.60;;;8.70;99.90;;;;;;5113424;28;20489;-69
2022/11/12 04:27:10;;;;;;;9.00;4.20;;;8.70;99.90;;;;;;5110753;28;20522;-68
2022/11/12 04:32:22;;;;;;;5.50;3.97;;;8.70;99.90;;;;;;5113965;28;20794;-68
2022/11/12 04:34:49;;;;;;;8.40;4.33;;;8.60;99.90;;;;;;5113369;28;20437;-68
2022/11/12 04:37:18;;;;;;;4.93;4.20;;;8.60;99.90;;;;;;5114016;28;20449;-68
2022/11/12 04:39:44;;;;;;;4.63;4.20;;;8.60;99.90;;;;;;5117056;28;20483;-69
2022/11/12 04:45:02;;;;;;;7.83;4.30;;;8.60;99.90;;;;;;5060717;28;20442;-67
2022/11/12 04:47:32;;;;;;;5.33;4.80;;;8.60;99.90;;;;;;5099085;28;20462;-68
2022/11/12 04:50:00;;;;;;;5.50;4.07;;;8.60;99.90;;;;;;5099553;28;20449;-69
2022/11/12 04:52:29;;;;;;;8.03;4.43;;;8.50;99.90;;;;;;5100067;28;20544;-68
2022/11/12 04:54:57;;;;;;;4.67;4.03;;;8.50;99.90;;;;;;5098625;28;20483;-67
2022/11/12 04:57:24;;;;;;;7.50;6.43;;;8.50;99.90;;;;;;5098883;28;20472;-68
2022/11/12 04:59:51;;;;;;;5.00;3.87;;;8.50;99.90;;;;;;5099209;28;20480;-68
2022/11/12 05:02:19;;;;;;;5.67;3.93;;;8.50;99.90;;;;;;5098804;28;20500;-68
2022/11/12 05:04:46;;;;;;;4.83;3.80;;;8.50;99.90;;;;;;5098903;28;20536;-67
2022/11/12 05:07:13;;;;;;;8.07;4.50;;;8.50;99.90;;;;;;5098360;28;20571;-68
2022/11/12 05:09:41;;;;;;;5.53;4.17;;;8.50;99.90;;;;;;5098697;28;20552;-67
2022/11/12 05:12:08;;;;;;;5.43;3.60;;;8.40;99.90;;;;;;5098568;28;20457;-68
2022/11/12 05:14:35;;;;;;;5.43;4.07;;;8.40;99.90;;;;;;5098404;28;20552;-68
2022/11/12 05:17:02;;;;;;;4.80;3.97;;;8.40;99.90;;;;;;5098408;28;20535;-68
2022/11/12 05:19:29;;;;;;;6.63;4.10;;;8.40;99.90;;;;;;5098568;28;20544;-67
2022/11/12 05:22:04;;;;;;;6.30;4.70;;;8.40;99.90;;;;;;5098661;28;20457;-66
2022/11/12 05:24:31;;;;;;;10.20;5.20;;;8.30;99.90;;;;;;5097914;28;20545;-67
2022/11/12 05:26:59;;;;;;;4.60;4.00;;;8.30;99.90;;;;;;5098533;28;20549;-67
2022/11/12 05:29:26;;;;;;;5.07;4.43;;;8.30;99.90;;;;;;5097894;28;20457;-67
2022/11/12 05:31:53;;;;;;;6.97;4.77;;;8.30;99.90;;;;;;5098923;28;20453;-68
2022/11/12 05:34:20;;;;;;;6.90;4.70;;;8.30;99.90;;;;;;5098419;28;20793;-67
2022/11/12 05:36:47;;;;;;;4.70;4.17;;;8.30;99.90;;;;;;5098483;28;20875;-68
2022/11/12 05:39:14;;;;;;;6.80;4.40;;;8.30;99.90;;;;;;5098056;28;20588;-68
2022/11/12 05:41:41;;;;;;;6.33;4.33;;;8.30;99.90;;;;;;5097756;28;20493;-68
2022/11/12 05:44:09;;;;;;;7.63;4.30;;;8.30;99.90;;;;;;5098278;28;20514;-68
2022/11/12 05:46:36;;;;;;;6.90;4.80;;;8.30;99.90;;;;;;5097537;28;20524;-67
2022/11/12 05:49:03;;;;;;;6.23;4.53;;;8.30;99.90;;;;;;5097498;28;20559;-67
2022/11/12 05:51:30;;;;;;;8.87;4.60;;;8.20;99.90;;;;;;5098013;28;20453;-68
2022/11/12 05:53:57;;;;;;;5.00;3.90;;;8.30;99.90;;;;;;5098248;28;20514;-67
2022/11/12 05:56:24;;;;;;;7.07;4.70;;;8.20;99.90;;;;;;5098219;28;20544;-68
2022/11/12 05:58:51;;;;;;;6.57;4.50;;;8.20;99.90;;;;;;5098088;28;20481;-67
2022/11/12 06:01:19;;;;;;;13.10;4.33;;;8.20;99.90;;;;;;5097892;28;20457;-67
2022/11/12 06:03:46;;;;;;;5.40;3.83;;;8.20;99.90;;;;;;5098489;28;20487;-67
2022/11/12 06:06:13;;;;;;;7.10;4.70;;;8.10;99.90;;;;;;5099175;28;20832;-67
2022/11/12 06:08:40;;;;;;;6.10;4.37;;;8.10;99.90;;;;;;5098443;28;20568;-68
2022/11/12 06:11:07;;;;;;;7.07;4.60;;;8.10;99.90;;;;;;5098130;28;20457;-66
2022/11/12 06:13:34;;;;;;;5.23;3.33;;;8.10;99.90;;;;;;5097726;28;20457;-67
2022/11/12 06:16:01;;;;;;;9.53;5.20;;;8.10;99.90;;;;;;5097966;28;20536;-67
2022/11/12 06:18:30;;;;;;;6.30;3.90;;;8.10;99.90;;;;;;5097658;28;20453;-68
2022/11/12 06:21:21;;;;;;;5.93;4.27;;;8.10;99.90;;;;;;5097908;28;20496;-70
2022/11/12 06:23:50;;;;;;;6.80;4.93;;;8.10;99.90;;;;;;5097601;28;20437;-68
2022/11/12 06:26:17;;;;;;;6.93;4.40;;;8.10;99.90;;;;;;5097408;28;20509;-68
2022/11/12 06:28:45;;;;;;;6.83;4.60;;;8.10;99.90;;;;;;5097626;28;20536;-69
2022/11/12 06:31:12;;;;;;;6.60;4.57;;;8.10;99.90;;;;;;5097659;28;20454;-67
2022/11/12 06:33:40;;;;;;;9.10;4.60;;;8.10;99.90;;;;;;5097009;28;20504;-67
2022/11/12 06:36:08;;;;;;;8.87;4.43;;;8.10;99.90;;;;;;5096874;28;20454;-69
2022/11/12 06:38:38;;;;;;;5.27;3.80;;;8.10;99.90;;;;;;5097343;28;20506;-68
2022/11/12 06:41:06;;;;;;;5.03;4.20;;;8.10;99.90;;;;;;5097866;28;20836;-69
2022/11/12 06:43:35;;;;;;;5.87;5.07;;;8.10;99.90;;;;;;5096999;28;20497;-70
2022/11/12 06:46:02;;;;;;;10.30;5.50;;;8.20;99.90;;;;;;5096897;28;20457;-69
2022/11/12 06:48:30;;;;;;;5.10;4.37;;;8.20;99.90;;;;;;5096573;28;20508;-68
2022/11/12 06:50:58;;;;;;;5.50;4.33;;;8.20;99.90;;;;;;5097039;28;20453;-67
2022/11/12 06:53:26;;;;;;;6.50;4.00;;;8.20;99.90;;;;;;5096846;28;20998;-67
2022/11/12 06:55:53;;;;;;;7.70;4.67;;;8.20;99.90;;;;;;5096791;28;20500;-68
2022/11/12 06:58:20;;;;;;;4.10;3.70;;;8.20;99.90;;;;;;5096538;28;20491;-68
2022/11/12 07:00:47;;;;;;;6.27;4.43;;;8.20;99.90;;;;;;5095908;28;20522;-68
2022/11/12 07:03:15;;;;;;;5.97;4.60;;;8.20;99.90;;;;;;5096845;28;20540;-67
2022/11/12 07:05:42;;;;;;;7.67;4.57;;;8.20;99.90;;;;;;5096730;28;20750;-68
2022/11/12 07:08:11;;;;;;;6.27;3.40;;;8.20;99.90;;;;;;5096616;28;20849;-68
2022/11/12 07:10:38;;;;;;;7.17;4.60;;;8.30;99.90;;;;;;5097225;28;20453;-68
2022/11/12 07:13:05;;;;;;;6.63;4.50;;;8.30;99.90;;;;;;5096342;28;20548;-68
2022/11/12 07:15:32;;;;;;;4.90;4.37;;;8.30;99.90;;;;;;5096313;28;20522;-68
2022/11/12 07:17:59;;;;;;;8.87;5.07;;;8.40;99.90;;;;;;5096279;28;20784;-68
2022/11/12 07:20:26;;;;;;;6.97;4.27;;;8.40;99.90;;;;;;5096303;28;20768;-68
2022/11/12 07:22:53;;;;;;;14.17;5.30;;;8.50;99.90;;;;;;5096438;28;20457;-67
2022/11/12 07:25:21;;;;;;;7.40;4.40;;;8.60;99.90;;;;;;5096280;28;21010;-68
2022/11/12 07:27:48;;;;;;;8.43;4.80;;;8.70;99.90;;;;;;5096480;28;20977;-68
2022/11/12 07:30:16;;;;;;;5.80;4.70;;;8.80;99.90;;;;;;5096458;28;20457;-68
2022/11/12 07:32:43;;;;;;;8.53;4.93;;;8.90;99.90;;;;;;5095945;28;20536;-68
2022/11/12 07:35:10;;;;;;;6.13;4.93;;;8.90;99.90;;;;;;5096202;28;20491;-68
2022/11/12 07:37:37;;;;;;;8.23;5.10;;;9.00;99.90;;;;;;5095902;28;20464;-68
2022/11/12 07:40:05;;;;;;;5.93;4.40;;;9.10;99.90;;;;;;5098289;28;20837;-67
2022/11/12 07:42:34;;;;;;;8.87;4.87;;;9.10;99.90;;;;;;5098031;28;20461;-68
2022/11/12 07:45:01;;;;;;;6.20;4.60;;;9.20;99.90;;;;;;5097084;28;20549;-67
2022/11/12 07:47:28;;;;;;;6.10;4.77;;;9.20;99.90;;;;;;5096123;28;20481;-68
2022/11/12 07:49:55;;;;;;;6.60;4.83;;;9.30;99.90;;;;;;5096164;28;20780;-68
2022/11/12 07:52:22;;;;;;;9.17;4.20;;;9.30;99.90;;;;;;5096049;28;20514;-68
2022/11/12 07:54:50;;;;;;;5.17;4.67;;;9.20;99.90;;;;;;5096484;28;20449;-68
2022/11/12 07:57:16;;;;;;;6.67;5.00;;;9.20;99.90;;;;;;5097047;28;20460;-68
2022/11/12 07:59:45;;;;;;;7.10;4.80;;;9.20;99.90;;;;;;5097813;28;20496;-68
2022/11/12 08:02:12;;;;;;;8.00;5.30;;;9.20;99.90;;;;;;5097407;28;20536;-68
2022/11/12 08:04:39;;;;;;;8.23;4.60;;;9.20;99.90;;;;;;5096023;28;20521;-69
2022/11/12 08:07:06;;;;;;;9.47;5.43;;;9.20;99.90;;;;;;5096272;28;20492;-69
2022/11/12 08:09:33;;;;;;;6.17;5.13;;;9.20;99.90;;;;;;5096321;28;20457;-68
2022/11/12 08:12:00;;;;;;;6.37;5.07;;;9.20;99.90;;;;;;5096385;28;20464;-68
2022/11/12 08:14:27;;;;;;;6.77;5.03;;;9.30;99.90;;;;;;5096547;28;20511;-69
2022/11/12 08:16:55;;;;;;;6.70;5.07;;;9.30;99.90;;;;;;5096259;28;20906;-68
2022/11/12 08:19:22;;;;;;;8.53;6.83;;;9.30;99.90;;;;;;5096712;28;20477;-68
2022/11/12 08:21:49;;;;;;;12.77;6.33;;;9.30;99.90;;;;;;5097112;28;20485;-68
2022/11/12 08:24:15;;;;;;;9.00;6.00;;;9.40;99.90;;;;;;5095930;28;20518;-68
2022/11/12 08:26:42;;;;;;;9.63;5.57;;;9.40;99.90;;;;;;5096052;28;20457;-68
2022/11/12 08:29:09;;;;;;;8.10;6.17;;;9.50;99.90;;;;;;5095375;28;20508;-68
2022/11/12 08:31:36;;;;;;;9.50;6.07;;;9.60;99.90;;;;;;5095997;28;20457;-69
2022/11/12 08:34:10;;;;;;;8.67;5.90;;;9.70;99.90;;;;;;5095234;28;20559;-70
2022/11/12 08:36:39;;;;;;;8.77;6.83;;;9.80;99.90;;;;;;5095089;28;20800;-68
2022/11/12 08:39:07;;;;;;;12.30;7.40;;;9.90;99.90;;;;;;5095445;28;20449;-68
2022/11/12 08:41:34;;;;;;;9.80;7.20;;;9.90;99.90;;;;;;5095229;28;20461;-68
2022/11/12 08:44:01;;;;;;;9.17;7.20;;;9.90;99.90;;;;;;5095329;28;20550;-69
2022/11/12 08:46:28;;;;;;;11.93;8.43;;;10.00;99.90;;;;;;5095376;28;20493;-68
2022/11/12 08:48:55;;;;;;;13.03;8.67;;;10.00;99.90;;;;;;5094929;28;20943;-69
2022/11/12 08:51:23;;;;;;;13.87;8.03;;;10.10;99.90;;;;;;5094620;28;20457;-68
2022/11/12 08:53:50;;;;;;;12.83;8.50;;;10.10;99.90;;;;;;5094876;28;20552;-67
2022/11/12 08:56:17;;;;;;;12.43;9.40;;;10.20;99.90;;;;;;5094635;28;20464;-68
2022/11/12 08:58:44;;;;;;;14.90;10.57;;;10.30;99.90;;;;;;5094430;28;20481;-69
2022/11/12 09:01:11;;;;;;;17.10;9.43;;;10.40;99.90;;;;;;5094455;28;20457;-66
2022/11/12 09:03:38;;;;;;;14.87;9.60;;;10.50;99.90;;;;;;5094510;28;20794;-67
2022/11/12 09:06:06;;;;;;;15.50;9.93;;;10.60;99.90;;;;;;5094512;28;20461;-70
2022/11/12 09:08:36;;;;;;;16.83;10.70;;;10.80;99.90;;;;;;5094047;28;20473;-68
2022/11/12 09:11:04;;;;;;;20.50;10.23;;;11.00;99.90;;;;;;5095158;28;20459;-67
2022/11/12 09:13:31;;;;;;;13.70;10.10;;;11.20;99.90;;;;;;5095034;28;20547;-67
2022/11/12 09:16:03;;;;;;;14.20;10.27;;;11.30;99.90;;;;;;5094468;28;20519;-68
2022/11/12 09:18:31;;;;;;;17.40;11.30;;;11.50;99.90;;;;;;5094589;28;20453;-68
2022/11/12 09:21:03;;;;;;;13.90;9.60;;;11.60;99.90;;;;;;5094623;28;20914;-69
2022/11/12 09:23:31;;;;;;;12.53;8.83;;;11.70;99.90;;;;;;5095745;28;20544;-69
2022/11/12 09:25:59;;;;;;;17.27;9.80;;;11.80;99.90;;;;;;5098460;28;20516;-68
2022/11/12 09:28:26;;;;;;;12.53;10.20;;;11.90;99.90;;;;;;5098444;28;20539;-69
2022/11/12 09:30:54;;;;;;;16.33;9.70;;;11.90;99.90;;;;;;5098549;28;20536;-68
2022/11/12 09:33:23;;;;;;;14.90;10.23;;;12.00;99.90;;;;;;5098089;28;20548;-69
2022/11/12 09:35:51;;;;;;;14.97;10.80;;;12.00;99.90;;;;;;5097933;28;20533;-67
2022/11/12 09:38:18;;;;;;;15.50;9.13;;;12.10;99.90;;;;;;5098226;28;20449;-68
2022/11/12 09:40:58;;;;;;;13.33;8.60;;;12.10;99.90;;;;;;5098030;28;20463;-69
2022/11/12 09:43:31;;;;;;;14.27;9.77;;;12.20;99.90;;;;;;5097964;28;20494;-68
2022/11/12 09:46:04;;;;;;;15.93;9.83;;;12.30;99.90;;;;;;5098023;28;20438;-67
2022/11/12 09:48:36;;;;;;;17.70;7.97;;;12.40;99.90;;;;;;5097586;28;20501;-68
2022/11/12 09:51:07;;;;;;;17.97;7.60;;;12.50;99.90;;;;;;5097848;28;20478;-69
2022/11/12 09:53:40;;;;;;;13.37;8.00;;;12.60;99.90;;;;;;5097754;28;20994;-69
2022/11/12 09:56:10;;;;;;;12.27;7.53;;;12.80;99.90;;;;;;5097635;28;20469;-68
2022/11/12 09:58:39;;;;;;;9.83;7.37;;;12.80;99.90;;;;;;5097204;28;20553;-69
2022/11/12 10:01:14;;;;;;;11.63;7.53;;;12.90;99.90;;;;;;5099254;28;20840;-68
2022/11/12 10:03:54;;;;;;;17.70;8.80;;;13.00;99.90;;;;;;5098860;28;20462;-67
2022/11/12 10:06:24;;;;;;;14.00;8.30;;;13.10;99.90;;;;;;5099072;28;20768;-69
2022/11/12 10:08:57;;;;;;;14.83;7.67;;;13.20;99.90;;;;;;5098505;28;20817;-68
2022/11/12 10:14:44;;;;;;;10.27;6.73;;;13.40;99.90;;;;;;5098748;28;20865;-68
2022/11/12 10:17:18;;;;;;;7.70;6.40;;;13.40;99.90;;;;;;5097814;28;20838;-66
2022/11/12 10:19:56;;;;;;;10.90;6.90;;;13.50;99.90;;;;;;5096703;28;20837;-67
2022/11/12 10:22:35;;;;;;;8.60;5.97;;;13.60;99.90;;;;;;5096966;28;20437;-66
2022/11/12 10:25:13;;;;;;;11.77;6.37;;;13.70;99.90;;;;;;5096762;28;20485;-66
2022/11/12 10:27:42;;;;;;;13.15;8.05;;;13.90;99.90;;;;;;5096813;28;20469;-66
2022/11/12 10:30:16;;;;;;;10.60;5.20;;;14.00;99.90;;;;;;5096940;28;20845;-67
2022/11/12 10:32:48;;;;;;;9.27;6.30;;;14.10;99.90;;;;;;5096998;28;20471;-67
2022/11/12 10:35:19;;;;;;;12.20;7.47;;;14.20;99.90;;;;;;5096742;28;20461;-67
2022/11/12 10:37:51;;;;;;;9.00;6.30;;;14.30;99.90;;;;;;5097216;28;20453;-66
2022/11/12 10:40:30;;;;;;;10.47;5.87;;;14.40;99.90;;;;;;5096427;28;20528;-66
2022/11/12 10:43:01;;;;;;;13.80;6.87;;;14.40;99.90;;;;;;5098217;28;20446;-66
2022/11/12 10:45:30;;;;;;;11.50;8.67;;;14.50;99.90;;;;;;5098315;28;20450;-67
2022/11/12 10:47:58;;;;;;;12.37;7.57;;;14.50;99.90;;;;;;5097863;28;20454;-67
2022/11/12 10:50:29;;;;;;;11.27;7.60;;;14.50;99.90;;;;;;5097727;28;20496;-66
2022/11/12 10:52:59;;;;;;;11.80;7.73;;;14.50;99.90;;;;;;5097795;28;20469;-67
2022/11/12 10:55:28;;;;;;;13.03;8.00;;;14.60;99.90;;;;;;5098124;28;20489;-66
2022/11/12 10:58:15;;;;;;;11.30;7.57;;;14.60;99.90;;;;;;5098402;28;20532;-67
2022/11/12 11:01:06;;;;;;;12.43;7.47;;;14.80;99.90;;;;;;5100411;28;20437;-65
2022/11/12 11:03:35;;;;;;;11.00;7.13;;;14.90;99.90;;;;;;5098943;28;20468;-67
2022/11/12 11:06:05;;;;;;;14.60;7.57;;;15.00;99.90;;;;;;5098235;28;20492;-67
2022/11/12 11:08:37;;;;;;;13.03;7.20;;;15.10;99.90;;;;;;5097909;28;21034;-66
2022/11/12 11:11:22;;;;;;;11.20;7.97;;;15.20;99.90;;;;;;5097452;28;20545;-66
2022/11/12 11:13:50;;;;;;;9.57;6.73;;;15.30;99.90;;;;;;5097711;28;20507;-67
2022/11/12 11:16:20;;;;;;;10.50;6.43;;;15.30;99.90;;;;;;5097930;28;20460;-67
2022/11/12 11:18:52;;;;;;;10.60;7.40;;;15.40;99.90;;;;;;5097972;28;20811;-67
2022/11/12 11:21:40;;;;;;;9.60;6.00;;;15.50;99.90;;;;;;5098346;28;20441;-67
2022/11/12 11:24:25;;;;;;;13.30;6.70;;;15.50;99.90;;;;;;5097967;28;20474;-67
2022/11/12 11:27:01;;;;;;;8.63;5.20;;;15.50;99.90;;;;;;5098079;28;20463;-67
2022/11/12 11:29:58;;;;;;;11.60;7.53;;;15.40;99.90;;;;;;5097858;28;20461;-67
2022/11/12 11:32:39;;;;;;;9.50;5.90;;;15.50;99.90;;;;;;5082399;28;20526;-69
2022/11/12 11:35:20;;;;;;;11.60;5.67;;;15.50;99.90;;;;;;5097725;28;20421;-66
2022/11/12 11:37:58;;;;;;;8.03;6.10;;;15.60;99.90;;;;;;5098007;28;20438;-66
2022/11/12 11:40:29;;;;;;;7.63;5.40;;;15.60;99.90;;;;;;5098077;28;20469;-67
2022/11/12 11:43:18;;;;;;;9.70;6.07;;;15.60;99.90;;;;;;5097765;28;20450;-67
2022/11/12 11:46:01;;;;;;;7.23;5.77;;;15.70;99.90;;;;;;5096836;28;20882;-68
2022/11/12 11:48:41;;;;;;;10.87;6.57;;;15.90;99.90;;;;;;5096201;28;20552;-67
2022/11/12 11:51:23;;;;;;;10.43;5.50;;;16.20;99.90;;;;;;5096949;28;20761;-67
2022/11/12 11:53:59;;;;;;;7.73;4.90;;;17.00;99.90;;;;;;5096627;28;20525;-66
2022/11/12 11:56:29;;;;;;;6.93;5.03;;;18.20;99.90;;;;;;5095871;28;20943;-67
2022/11/12 11:59:14;;;;;;;13.50;6.00;;;19.50;99.90;;;;;;5096144;28;20433;-66
2022/11/12 12:01:56;;;;;;;8.30;5.27;;;20.40;99.90;;;;;;5095926;28;20532;-67
2022/11/12 12:04:42;;;;;;;10.00;4.90;;;21.40;99.90;;;;;;5095235;28;20498;-67
2022/11/12 12:07:22;;;;;;;8.73;4.90;;;22.30;99.90;;;;;;5094800;28;20885;-67
2022/11/12 12:09:55;;;;;;;11.40;5.30;;;23.30;99.90;;;;;;5095389;28;20497;-67
2022/11/12 12:12:43;;;;;;;5.53;4.53;;;24.00;99.90;;;;;;5094660;28;20478;-67
2022/11/12 12:15:30;;;;;;;6.77;4.90;;;24.70;99.90;;;;;;5094490;28;20510;-66
2022/11/12 12:18:07;;;;;;;13.47;5.47;;;25.50;99.90;;;;;;5094936;28;20466;-67
2022/11/12 12:20:45;;;;;;;8.10;6.33;;;26.10;96.50;;;;;;5094441;28;20445;-67
2022/11/12 12:23:19;;;;;;;6.10;5.00;;;26.80;92.20;;;;;;5094653;28;20524;-66
2022/11/12 12:25:49;;;;;;;10.10;5.20;;;27.10;87.60;;;;;;5094489;28;20514;-67
2022/11/12 12:28:27;;;;;;;9.23;5.30;;;27.30;81.50;;;;;;5094862;28;20496;-67
2022/11/12 12:31:02;;;;;;;10.83;5.73;;;27.10;79.10;;;;;;5095085;28;20498;-66
2022/11/12 12:33:34;;;;;;;6.53;4.47;;;27.00;76.20;;;;;;5094630;28;20433;-67
2022/11/12 12:36:08;;;;;;;7.20;5.70;;;26.90;76.40;;;;;;5094376;28;20437;-67
2022/11/12 12:38:41;;;;;;;9.00;5.10;;;26.60;73.20;;;;;;5094645;28;20474;-67
2022/11/12 12:41:16;;;;;;;7.33;6.30;;;26.30;74.10;;;;;;5095267;28;20446;-67
2022/11/12 12:43:46;;;;;;;7.07;4.53;;;26.20;74.90;;;;;;5094936;28;20476;-67
2022/11/12 12:46:17;;;;;;;10.40;7.47;;;26.00;72.90;;;;;;5094964;28;20500;-67
2022/11/12 12:48:46;;;;;;;8.10;5.17;;;25.80;76.00;;;;;;5094459;28;20505;-67
2022/11/12 12:51:14;;;;;;;7.60;5.40;;;25.80;74.50;;;;;;5094200;28;20504;-66
2022/11/12 12:53:42;;;;;;;12.70;4.90;;;25.50;74.50;;;;;;5094463;28;20532;-67
2022/11/12 12:56:45;;;;;;;10.27;4.60;;;25.30;75.50;;;;;;5094683;28;20457;-68
2022/11/12 12:59:21;;;;;;;9.67;5.17;;;25.50;76.20;;;;;;5097404;28;20434;-67
2022/11/12 13:01:57;;;;;;;6.97;5.20;;;25.70;74.70;;;;;;5098306;28;20448;-67
2022/11/12 13:04:57;;;;;;;8.33;6.07;;;25.80;75.20;;;;;;5098586;28;20486;-68
2022/11/12 13:07:42;;;;;;;11.67;4.80;;;26.00;73.00;;;;;;5036295;28;20448;-66
2022/11/12 13:10:54;;;;;;;10.27;5.10;;;26.10;71.70;;;;;;5036047;28;20790;-67
2022/11/12 13:13:33;;;;;;;9.40;5.60;;;25.60;73.20;;;;;;5090355;28;20457;-67
2022/11/12 13:16:01;;;;;;;7.77;5.90;;;25.60;73.10;;;;;;5098134;28;20492;-67
2022/11/12 13:19:00;;;;;;;8.17;5.23;;;25.50;74.20;;;;;;5098017;28;20531;-66
2022/11/12 13:21:28;;;;;;;7.93;5.20;;;25.20;74.70;;;;;;5098134;28;20445;-67
2022/11/12 13:24:06;;;;;;;7.63;4.97;;;25.30;73.80;;;;;;5097785;28;20787;-67
2022/11/12 13:26:50;;;;;;;6.87;5.00;;;25.30;72.30;;;;;;5097441;28;20476;-66
2022/11/12 13:29:42;;;;;;;8.93;5.57;;;25.40;72.00;;;;;;5097458;28;20483;-67